Aviation Digital Data Service (ADDS)

Output produced by METARs form (2104 UTC 20 August 2019)
found at http://www.aviationweather.gov/metar/data/
 
Forecast for: AMD
Text: TAF AMD ETHF 201436Z 2014/2023 VRB03KT 9999 NSW FEW040 BKN190 CANCEL 1500
Forecast period: 1400 to 2300 UTC 20 August 2019
Forecast type: FROM: standard forecast or significant change
Winds: variable direction winds at 3 MPH (3 knots; 1.5 m/s)
Visibility: 6 or more miles 10+ km)
Ceiling: 19000 feet AGL
Clouds: few clouds at 4000 feet AGL
broken clouds at 19000 feet AGL
Weather: NSW  (no significant weather)